LOG708 LFPG-LOWW
Flight info
| Callsign | LOG708 |
|---|---|
| Flight time | 1h 30m |
| Altitude | FL350 |
| Route | RANU6A RANUX VALEK LIPNI LIMGO BOMBI BARSU EKSOS LULAR RUDAP BUDEX BUDE2W |
| Aircraft | B752/M-SDE3FHIM3RW/LB1 |
Departure
| Time | 2026-05-06 17:02 |
|---|---|
| Airport | Charles de Gaulle International Airport (LFPG) |
Arrival
| Time | 2026-05-06 18:32 |
|---|---|
| Airport | Vienna International Airport (LOWW) |
| Time | Latitude | Longitude | Altitude | Speed | Heading |
|---|---|---|---|---|---|
| 2026-05-06 16:53 | 49.01339 | 2.55596 | 401 ft | 0 kts | 355° |
| 2026-05-06 16:56 | 49.01333 | 2.55597 | 401 ft | 2 kts | 355° |
| 2026-05-06 16:56 | 49.01316 | 2.55600 | 401 ft | 3 kts | 355° |
| 2026-05-06 16:56 | 49.01296 | 2.55603 | 401 ft | 3 kts | 339° |
| 2026-05-06 16:57 | 49.01279 | 2.55620 | 401 ft | 3 kts | 308° |
| 2026-05-06 16:57 | 49.01273 | 2.55635 | 401 ft | 0 kts | 292° |
| 2026-05-06 16:57 | 49.01273 | 2.55629 | 401 ft | 1 kts | 277° |
| 2026-05-06 16:57 | 49.01269 | 2.55578 | 401 ft | 10 kts | 263° |
| 2026-05-06 16:58 | 49.01259 | 2.55435 | 401 ft | 18 kts | 264° |
| 2026-05-06 16:58 | 49.01263 | 2.55247 | 401 ft | 16 kts | 303° |
| 2026-05-06 16:58 | 49.01341 | 2.55205 | 401 ft | 15 kts | 346° |
| 2026-05-06 16:58 | 49.01464 | 2.55168 | 401 ft | 20 kts | 354° |
| 2026-05-06 16:59 | 49.01606 | 2.55145 | 401 ft | 21 kts | 354° |
| 2026-05-06 16:59 | 49.01750 | 2.55123 | 401 ft | 21 kts | 355° |
| 2026-05-06 16:59 | 49.01896 | 2.55096 | 401 ft | 21 kts | 347° |
| 2026-05-06 16:59 | 49.02022 | 2.55097 | 401 ft | 17 kts | 42° |
| 2026-05-06 17:00 | 49.02053 | 2.55287 | 401 ft | 23 kts | 85° |
| 2026-05-06 17:00 | 49.02066 | 2.55556 | 401 ft | 27 kts | 85° |
| 2026-05-06 17:00 | 49.02078 | 2.55841 | 401 ft | 25 kts | 86° |
| 2026-05-06 17:00 | 49.02151 | 2.55968 | 401 ft | 14 kts | 11° |
| 2026-05-06 17:01 | 49.02262 | 2.55968 | 401 ft | 19 kts | 351° |
| 2026-05-06 17:01 | 49.02302 | 2.55860 | 401 ft | 10 kts | 266° |
| 2026-05-06 17:01 | 49.02301 | 2.55847 | 401 ft | 0 kts | 266° |
| 2026-05-06 17:01 | 49.02293 | 2.55639 | 401 ft | 58 kts | 266° |
| 2026-05-06 17:02 | 49.02236 | 2.54550 | 401 ft | 146 kts | 264° |
| 2026-05-06 17:02 | 49.02125 | 2.52749 | 680 ft | 187 kts | 266° |
| 2026-05-06 17:02 | 49.02076 | 2.50672 | 1446 ft | 206 kts | 270° |
| 2026-05-06 17:02 | 49.01897 | 2.48380 | 2183 ft | 232 kts | 265° |
| 2026-05-06 17:03 | 49.01637 | 2.45779 | 2918 ft | 265 kts | 265° |
| 2026-05-06 17:03 | 49.01772 | 2.43084 | 3568 ft | 246 kts | 284° |
| 2026-05-06 17:03 | 49.02626 | 2.40807 | 4336 ft | 256 kts | 307° |
| 2026-05-06 17:03 | 49.03933 | 2.38919 | 5088 ft | 261 kts | 321° |
| 2026-05-06 17:04 | 49.05420 | 2.37402 | 5838 ft | 257 kts | 329° |
| 2026-05-06 17:04 | 49.06996 | 2.36096 | 6590 ft | 259 kts | 334° |
| 2026-05-06 17:04 | 49.08732 | 2.35478 | 7292 ft | 260 kts | 355° |
| 2026-05-06 17:04 | 49.10528 | 2.36038 | 8053 ft | 271 kts | 18° |
| 2026-05-06 17:05 | 49.12096 | 2.37702 | 8810 ft | 281 kts | 41° |
| 2026-05-06 17:05 | 49.13151 | 2.40233 | 9563 ft | 289 kts | 63° |
| 2026-05-06 17:05 | 49.13540 | 2.43291 | 10104 ft | 306 kts | 83° |
| 2026-05-06 17:05 | 49.13203 | 2.46561 | 10402 ft | 326 kts | 104° |
| 2026-05-06 17:06 | 49.12323 | 2.49856 | 10953 ft | 344 kts | 113° |
| 2026-05-06 17:06 | 49.11307 | 2.53238 | 11586 ft | 359 kts | 114° |
| 2026-05-06 17:06 | 49.10353 | 2.56818 | 12215 ft | 368 kts | 111° |
| 2026-05-06 17:06 | 49.09592 | 2.60553 | 12838 ft | 370 kts | 105° |
| 2026-05-06 17:07 | 49.09135 | 2.64428 | 13466 ft | 375 kts | 98° |
| 2026-05-06 17:07 | 49.08910 | 2.68400 | 14098 ft | 379 kts | 93° |
| 2026-05-06 17:07 | 49.08824 | 2.72429 | 14726 ft | 382 kts | 91° |
| 2026-05-06 17:07 | 49.08815 | 2.76481 | 15353 ft | 384 kts | 89° |
| 2026-05-06 17:08 | 49.08844 | 2.80553 | 15964 ft | 386 kts | 89° |
| 2026-05-06 17:08 | 49.08887 | 2.84666 | 16478 ft | 391 kts | 89° |
| 2026-05-06 17:08 | 49.08931 | 2.88824 | 16980 ft | 394 kts | 89° |
| 2026-05-06 17:08 | 49.08967 | 2.93010 | 17440 ft | 397 kts | 89° |
| 2026-05-06 17:09 | 49.08994 | 2.97220 | 17823 ft | 399 kts | 89° |
| 2026-05-06 17:09 | 49.09009 | 3.01459 | 18199 ft | 400 kts | 89° |
| 2026-05-06 17:09 | 49.09013 | 3.05705 | 18533 ft | 403 kts | 89° |
| 2026-05-06 17:09 | 49.09007 | 3.09981 | 18836 ft | 405 kts | 90° |
| 2026-05-06 17:10 | 49.08992 | 3.14278 | 19137 ft | 406 kts | 90° |
| 2026-05-06 17:10 | 49.08970 | 3.18589 | 19437 ft | 408 kts | 90° |
| 2026-05-06 17:10 | 49.08941 | 3.22910 | 19737 ft | 409 kts | 90° |
| 2026-05-06 17:10 | 49.08908 | 3.27254 | 20037 ft | 411 kts | 90° |
| 2026-05-06 17:11 | 49.08869 | 3.31617 | 20338 ft | 413 kts | 90° |
| 2026-05-06 17:11 | 49.08827 | 3.35993 | 20638 ft | 414 kts | 90° |
| 2026-05-06 17:11 | 49.08783 | 3.40386 | 20938 ft | 416 kts | 90° |
| 2026-05-06 17:11 | 49.08735 | 3.44795 | 21238 ft | 417 kts | 91° |
| 2026-05-06 17:12 | 49.08690 | 3.49220 | 21539 ft | 419 kts | 90° |
| 2026-05-06 17:12 | 49.08743 | 3.53657 | 21838 ft | 420 kts | 88° |
| 2026-05-06 17:12 | 49.08894 | 3.58102 | 22139 ft | 422 kts | 86° |
| 2026-05-06 17:12 | 49.09110 | 3.62567 | 22440 ft | 423 kts | 85° |
| 2026-05-06 17:13 | 49.09369 | 3.67038 | 22740 ft | 425 kts | 84° |
| 2026-05-06 17:13 | 49.09654 | 3.71528 | 23040 ft | 427 kts | 84° |
| 2026-05-06 17:13 | 49.09954 | 3.76027 | 23340 ft | 428 kts | 84° |
| 2026-05-06 17:13 | 49.10263 | 3.80546 | 23641 ft | 430 kts | 84° |
| 2026-05-06 17:14 | 49.10576 | 3.85081 | 23941 ft | 431 kts | 84° |
| 2026-05-06 17:14 | 49.10888 | 3.89625 | 24241 ft | 433 kts | 84° |
| 2026-05-06 17:14 | 49.11199 | 3.94192 | 24541 ft | 434 kts | 84° |
| 2026-05-06 17:14 | 49.11508 | 3.98786 | 24842 ft | 436 kts | 84° |
| 2026-05-06 17:15 | 49.11816 | 4.03393 | 25141 ft | 439 kts | 84° |
| 2026-05-06 17:15 | 49.12122 | 4.08031 | 25442 ft | 441 kts | 85° |
| 2026-05-06 17:15 | 49.12425 | 4.12692 | 25743 ft | 443 kts | 85° |
| 2026-05-06 17:15 | 49.12725 | 4.17369 | 26044 ft | 445 kts | 85° |
| 2026-05-06 17:16 | 49.13021 | 4.22073 | 26344 ft | 446 kts | 85° |
| 2026-05-06 17:16 | 49.13314 | 4.26791 | 26645 ft | 447 kts | 85° |
| 2026-05-06 17:16 | 49.13644 | 4.31504 | 26941 ft | 449 kts | 83° |
| 2026-05-06 17:16 | 49.14271 | 4.36167 | 27241 ft | 451 kts | 78° |
| 2026-05-06 17:17 | 49.15143 | 4.40770 | 27544 ft | 453 kts | 74° |
| 2026-05-06 17:17 | 49.16172 | 4.45318 | 27846 ft | 455 kts | 71° |
| 2026-05-06 17:17 | 49.17303 | 4.49843 | 28147 ft | 457 kts | 70° |
| 2026-05-06 17:17 | 49.18493 | 4.54346 | 28447 ft | 459 kts | 69° |
| 2026-05-06 17:18 | 49.19723 | 4.58854 | 28748 ft | 461 kts | 69° |
| 2026-05-06 17:18 | 49.20969 | 4.63354 | 29047 ft | 462 kts | 69° |
| 2026-05-06 17:18 | 49.22224 | 4.67862 | 29347 ft | 462 kts | 69° |
| 2026-05-06 17:18 | 49.23483 | 4.72379 | 29647 ft | 463 kts | 69° |
| 2026-05-06 17:19 | 49.24739 | 4.76904 | 29946 ft | 463 kts | 69° |
| 2026-05-06 17:19 | 49.25990 | 4.81431 | 30245 ft | 463 kts | 69° |
| 2026-05-06 17:19 | 49.27236 | 4.85968 | 30545 ft | 463 kts | 69° |
| 2026-05-06 17:19 | 49.28473 | 4.90502 | 30844 ft | 462 kts | 69° |
| 2026-05-06 17:20 | 49.29704 | 4.95044 | 31143 ft | 462 kts | 69° |
| 2026-05-06 17:20 | 49.30926 | 4.99574 | 31441 ft | 461 kts | 69° |
| 2026-05-06 17:20 | 49.32144 | 5.04117 | 31740 ft | 461 kts | 69° |
| 2026-05-06 17:20 | 49.33355 | 5.08652 | 32039 ft | 460 kts | 69° |
| 2026-05-06 17:21 | 49.34560 | 5.13184 | 32338 ft | 459 kts | 69° |
| 2026-05-06 17:21 | 49.35758 | 5.17706 | 32636 ft | 459 kts | 69° |
| 2026-05-06 17:21 | 49.36951 | 5.22225 | 32934 ft | 458 kts | 70° |
| 2026-05-06 17:21 | 49.38140 | 5.26740 | 33233 ft | 457 kts | 70° |
| 2026-05-06 17:22 | 49.39321 | 5.31242 | 33531 ft | 455 kts | 69° |
| 2026-05-06 17:22 | 49.40498 | 5.35738 | 33829 ft | 454 kts | 70° |
| 2026-05-06 17:22 | 49.41669 | 5.40225 | 34128 ft | 453 kts | 70° |
| 2026-05-06 17:22 | 49.42835 | 5.44703 | 34426 ft | 451 kts | 70° |
| 2026-05-06 17:23 | 49.43994 | 5.49162 | 34682 ft | 451 kts | 70° |
| 2026-05-06 17:23 | 49.45157 | 5.53647 | 34806 ft | 454 kts | 70° |
| 2026-05-06 17:23 | 49.46327 | 5.58170 | 34854 ft | 459 kts | 70° |
| 2026-05-06 17:24 | 49.48699 | 5.67378 | 34863 ft | 469 kts | 70° |
| 2026-05-06 17:24 | 49.51103 | 5.76789 | 34859 ft | 478 kts | 70° |
| 2026-05-06 17:25 | 49.53499 | 5.86380 | 34856 ft | 483 kts | 70° |
| 2026-05-06 17:25 | 49.55886 | 5.96043 | 34853 ft | 485 kts | 70° |
| 2026-05-06 17:26 | 49.58274 | 6.05771 | 34850 ft | 487 kts | 71° |
| 2026-05-06 17:26 | 49.60656 | 6.15518 | 34849 ft | 488 kts | 71° |
| 2026-05-06 17:27 | 49.62996 | 6.25314 | 34849 ft | 488 kts | 72° |
| 2026-05-06 17:27 | 49.65045 | 6.35267 | 34848 ft | 488 kts | 75° |
| 2026-05-06 17:28 | 49.66912 | 6.45305 | 34845 ft | 488 kts | 76° |
| 2026-05-06 17:28 | 49.68680 | 6.55264 | 34841 ft | 488 kts | 76° |
| 2026-05-06 17:29 | 49.70463 | 6.65509 | 34836 ft | 489 kts | 77° |
| 2026-05-06 17:29 | 49.72210 | 6.75637 | 34831 ft | 489 kts | 77° |
| 2026-05-06 17:30 | 49.73955 | 6.85798 | 34827 ft | 490 kts | 77° |
| 2026-05-06 17:30 | 49.75696 | 6.95970 | 34825 ft | 491 kts | 77° |
| 2026-05-06 17:31 | 49.77436 | 7.06170 | 34823 ft | 492 kts | 77° |
| 2026-05-06 17:31 | 49.79167 | 7.16357 | 34819 ft | 493 kts | 77° |
| 2026-05-06 17:32 | 49.80905 | 7.26634 | 34816 ft | 493 kts | 77° |
| 2026-05-06 17:32 | 49.82632 | 7.36894 | 34816 ft | 494 kts | 77° |
| 2026-05-06 17:33 | 49.84354 | 7.47183 | 34815 ft | 494 kts | 78° |
| 2026-05-06 17:33 | 49.86016 | 7.57160 | 34813 ft | 494 kts | 78° |
| 2026-05-06 17:34 | 49.87719 | 7.67447 | 34808 ft | 495 kts | 78° |
| 2026-05-06 17:34 | 49.89418 | 7.77768 | 34805 ft | 495 kts | 78° |
| 2026-05-06 17:35 | 49.91107 | 7.88095 | 34803 ft | 495 kts | 78° |
| 2026-05-06 17:35 | 49.92787 | 7.98425 | 34802 ft | 495 kts | 78° |
| 2026-05-06 17:36 | 49.95289 | 8.13931 | 34801 ft | 495 kts | 78° |
| 2026-05-06 17:36 | 49.96945 | 8.24279 | 34801 ft | 495 kts | 78° |
| 2026-05-06 17:37 | 49.98594 | 8.34643 | 34802 ft | 495 kts | 78° |
| 2026-05-06 17:37 | 50.00233 | 8.45019 | 34799 ft | 496 kts | 78° |
| 2026-05-06 17:38 | 50.01865 | 8.55423 | 34792 ft | 496 kts | 78° |
| 2026-05-06 17:38 | 50.03487 | 8.65840 | 34790 ft | 496 kts | 78° |
| 2026-05-06 17:39 | 50.05031 | 8.76277 | 34786 ft | 495 kts | 82° |
| 2026-05-06 17:39 | 50.05402 | 8.86904 | 34792 ft | 492 kts | 94° |
| 2026-05-06 17:40 | 50.04903 | 8.97481 | 34791 ft | 491 kts | 99° |
| 2026-05-06 17:40 | 50.04052 | 9.07975 | 34790 ft | 492 kts | 101° |
| 2026-05-06 17:41 | 50.03076 | 9.18515 | 34790 ft | 492 kts | 102° |
| 2026-05-06 17:41 | 50.02079 | 9.29037 | 34790 ft | 493 kts | 102° |
| 2026-05-06 17:42 | 50.01093 | 9.39587 | 34789 ft | 494 kts | 102° |
| 2026-05-06 17:42 | 50.00126 | 9.50159 | 34788 ft | 495 kts | 102° |
| 2026-05-06 17:43 | 49.99176 | 9.60756 | 34787 ft | 497 kts | 102° |
| 2026-05-06 17:43 | 49.98235 | 9.71368 | 34787 ft | 497 kts | 102° |
| 2026-05-06 17:44 | 49.97295 | 9.81994 | 34789 ft | 498 kts | 102° |
| 2026-05-06 17:44 | 49.96354 | 9.92632 | 34793 ft | 498 kts | 102° |
| 2026-05-06 17:45 | 49.95408 | 10.03277 | 34788 ft | 499 kts | 102° |
| 2026-05-06 17:45 | 49.94454 | 10.13921 | 34784 ft | 499 kts | 102° |
| 2026-05-06 17:46 | 49.93492 | 10.24559 | 34784 ft | 499 kts | 102° |
| 2026-05-06 17:46 | 49.92472 | 10.35182 | 34782 ft | 497 kts | 105° |
| 2026-05-06 17:47 | 49.90696 | 10.45442 | 34790 ft | 492 kts | 113° |
| 2026-05-06 17:47 | 49.88371 | 10.55356 | 34791 ft | 490 kts | 116° |
| 2026-05-06 17:48 | 49.85817 | 10.65120 | 34787 ft | 489 kts | 118° |
| 2026-05-06 17:48 | 49.83187 | 10.74813 | 34772 ft | 490 kts | 118° |
| 2026-05-06 17:49 | 49.80543 | 10.84501 | 34775 ft | 490 kts | 118° |
| 2026-05-06 17:49 | 49.77905 | 10.94214 | 34773 ft | 490 kts | 118° |
| 2026-05-06 17:50 | 49.75283 | 11.03928 | 34770 ft | 491 kts | 118° |
| 2026-05-06 17:50 | 49.72671 | 11.13657 | 34762 ft | 491 kts | 118° |
| 2026-05-06 17:51 | 49.70064 | 11.23393 | 34759 ft | 492 kts | 118° |
| 2026-05-06 17:51 | 49.67457 | 11.33136 | 34758 ft | 492 kts | 118° |
| 2026-05-06 17:52 | 49.64993 | 11.42992 | 34757 ft | 495 kts | 115° |
| 2026-05-06 17:52 | 49.62763 | 11.53043 | 34756 ft | 497 kts | 114° |
| 2026-05-06 17:53 | 49.60634 | 11.63160 | 34754 ft | 498 kts | 113° |
| 2026-05-06 17:53 | 49.58534 | 11.73309 | 34754 ft | 498 kts | 113° |
| 2026-05-06 17:54 | 49.56435 | 11.83458 | 34753 ft | 498 kts | 113° |
| 2026-05-06 17:54 | 49.54335 | 11.93550 | 34753 ft | 498 kts | 113° |
| 2026-05-06 17:55 | 49.52208 | 12.03680 | 34753 ft | 498 kts | 113° |
| 2026-05-06 17:55 | 49.50065 | 12.13796 | 34753 ft | 499 kts | 113° |
| 2026-05-06 17:56 | 49.47905 | 12.23916 | 34753 ft | 499 kts | 114° |
| 2026-05-06 17:56 | 49.45733 | 12.34015 | 34753 ft | 499 kts | 114° |
| 2026-05-06 17:57 | 49.43548 | 12.44115 | 34750 ft | 499 kts | 114° |
| 2026-05-06 17:57 | 49.41354 | 12.54196 | 34748 ft | 499 kts | 114° |
| 2026-05-06 17:58 | 49.39148 | 12.64270 | 34746 ft | 499 kts | 114° |
| 2026-05-06 17:58 | 49.36915 | 12.74318 | 34745 ft | 498 kts | 115° |
| 2026-05-06 17:59 | 49.34582 | 12.84275 | 34743 ft | 497 kts | 116° |
| 2026-05-06 17:59 | 49.32178 | 12.94193 | 34742 ft | 496 kts | 116° |
| 2026-05-06 18:00 | 49.29742 | 13.04061 | 34739 ft | 496 kts | 117° |
| 2026-05-06 18:00 | 49.27286 | 13.13923 | 34736 ft | 496 kts | 117° |
| 2026-05-06 18:01 | 49.24818 | 13.23756 | 34735 ft | 496 kts | 117° |
| 2026-05-06 18:01 | 49.22272 | 13.33548 | 34475 ft | 501 kts | 118° |
| 2026-05-06 18:02 | 49.20954 | 13.38502 | 33971 ft | 507 kts | 118° |
| 2026-05-06 18:02 | 49.19618 | 13.43482 | 33380 ft | 502 kts | 118° |
| 2026-05-06 18:02 | 49.18315 | 13.48342 | 32762 ft | 490 kts | 118° |
| 2026-05-06 18:02 | 49.17033 | 13.53113 | 32137 ft | 483 kts | 118° |
| 2026-05-06 18:03 | 49.15766 | 13.57807 | 31513 ft | 476 kts | 118° |
| 2026-05-06 18:03 | 49.14514 | 13.62432 | 30903 ft | 468 kts | 118° |
| 2026-05-06 18:03 | 49.13291 | 13.66940 | 30763 ft | 455 kts | 118° |
| 2026-05-06 18:03 | 49.12083 | 13.71378 | 30734 ft | 452 kts | 118° |
| 2026-05-06 18:04 | 49.09671 | 13.80175 | 30725 ft | 449 kts | 118° |
| 2026-05-06 18:04 | 49.08454 | 13.84585 | 30221 ft | 456 kts | 118° |
| 2026-05-06 18:04 | 49.07226 | 13.89017 | 29622 ft | 452 kts | 118° |
| 2026-05-06 18:05 | 49.06018 | 13.93394 | 29022 ft | 445 kts | 118° |
| 2026-05-06 18:05 | 49.04825 | 13.97714 | 28496 ft | 441 kts | 118° |
| 2026-05-06 18:05 | 49.03639 | 14.02006 | 27980 ft | 439 kts | 118° |
| 2026-05-06 18:05 | 49.02462 | 14.06261 | 27470 ft | 438 kts | 118° |
| 2026-05-06 18:06 | 49.01275 | 14.10538 | 26950 ft | 439 kts | 118° |
| 2026-05-06 18:06 | 49.00085 | 14.14816 | 26404 ft | 438 kts | 118° |
| 2026-05-06 18:06 | 48.98900 | 14.19067 | 25857 ft | 436 kts | 118° |
| 2026-05-06 18:06 | 48.97720 | 14.23296 | 25308 ft | 434 kts | 118° |
| 2026-05-06 18:07 | 48.96540 | 14.27514 | 24758 ft | 434 kts | 118° |
| 2026-05-06 18:07 | 48.95220 | 14.31624 | 24205 ft | 432 kts | 122° |
| 2026-05-06 18:07 | 48.93710 | 14.35532 | 23687 ft | 429 kts | 126° |
| 2026-05-06 18:07 | 48.92065 | 14.39314 | 23185 ft | 430 kts | 129° |
| 2026-05-06 18:08 | 48.90333 | 14.43002 | 22687 ft | 429 kts | 131° |
| 2026-05-06 18:08 | 48.88555 | 14.46607 | 22188 ft | 427 kts | 132° |
| 2026-05-06 18:08 | 48.86749 | 14.50165 | 21688 ft | 424 kts | 133° |
| 2026-05-06 18:08 | 48.84940 | 14.53667 | 21190 ft | 421 kts | 133° |
| 2026-05-06 18:09 | 48.83129 | 14.57145 | 20689 ft | 419 kts | 133° |
| 2026-05-06 18:09 | 48.81332 | 14.60585 | 20190 ft | 416 kts | 133° |
| 2026-05-06 18:09 | 48.79550 | 14.63999 | 19691 ft | 413 kts | 133° |
| 2026-05-06 18:09 | 48.77785 | 14.67393 | 19191 ft | 407 kts | 133° |
| 2026-05-06 18:10 | 48.76056 | 14.70733 | 18691 ft | 400 kts | 133° |
| 2026-05-06 18:10 | 48.74360 | 14.74026 | 18191 ft | 395 kts | 133° |
| 2026-05-06 18:10 | 48.72679 | 14.77301 | 17691 ft | 393 kts | 133° |
| 2026-05-06 18:10 | 48.71016 | 14.80545 | 17192 ft | 390 kts | 133° |
| 2026-05-06 18:11 | 48.69359 | 14.83776 | 16851 ft | 386 kts | 133° |
| 2026-05-06 18:11 | 48.67718 | 14.86978 | 16757 ft | 387 kts | 133° |
| 2026-05-06 18:11 | 48.66071 | 14.90184 | 16730 ft | 387 kts | 133° |
| 2026-05-06 18:11 | 48.64424 | 14.93386 | 16725 ft | 387 kts | 133° |
| 2026-05-06 18:12 | 48.62774 | 14.96591 | 16723 ft | 387 kts | 133° |
| 2026-05-06 18:12 | 48.61147 | 14.99793 | 16717 ft | 384 kts | 131° |
| 2026-05-06 18:12 | 48.59761 | 15.03249 | 16720 ft | 387 kts | 123° |
| 2026-05-06 18:12 | 48.58632 | 15.06945 | 16726 ft | 389 kts | 117° |
| 2026-05-06 18:13 | 48.57696 | 15.10765 | 16730 ft | 390 kts | 114° |
| 2026-05-06 18:13 | 48.56888 | 15.14672 | 16728 ft | 391 kts | 111° |
| 2026-05-06 18:13 | 48.56167 | 15.18617 | 16726 ft | 390 kts | 109° |
| 2026-05-06 18:13 | 48.55498 | 15.22576 | 16726 ft | 390 kts | 108° |
| 2026-05-06 18:14 | 48.54856 | 15.26548 | 16726 ft | 390 kts | 108° |
| 2026-05-06 18:14 | 48.54223 | 15.30521 | 16727 ft | 390 kts | 108° |
| 2026-05-06 18:14 | 48.53594 | 15.34462 | 16727 ft | 385 kts | 108° |
| 2026-05-06 18:14 | 48.52969 | 15.38369 | 16612 ft | 385 kts | 108° |
| 2026-05-06 18:15 | 48.52431 | 15.42306 | 16240 ft | 380 kts | 105° |
| 2026-05-06 18:15 | 48.52014 | 15.46146 | 15701 ft | 363 kts | 102° |
| 2026-05-06 18:15 | 48.51696 | 15.49828 | 15151 ft | 348 kts | 100° |
| 2026-05-06 18:15 | 48.51446 | 15.53394 | 14598 ft | 337 kts | 99° |
| 2026-05-06 18:16 | 48.51239 | 15.56875 | 14048 ft | 331 kts | 98° |
| 2026-05-06 18:16 | 48.51060 | 15.60256 | 13811 ft | 318 kts | 97° |
| 2026-05-06 18:16 | 48.50886 | 15.63557 | 13751 ft | 314 kts | 98° |
| 2026-05-06 18:16 | 48.50708 | 15.66831 | 13740 ft | 314 kts | 98° |
| 2026-05-06 18:17 | 48.50526 | 15.70101 | 13740 ft | 314 kts | 98° |
| 2026-05-06 18:17 | 48.50339 | 15.73381 | 13754 ft | 315 kts | 98° |
| 2026-05-06 18:17 | 48.50150 | 15.76660 | 13756 ft | 315 kts | 98° |
| 2026-05-06 18:17 | 48.49958 | 15.79944 | 13756 ft | 315 kts | 98° |
| 2026-05-06 18:18 | 48.49765 | 15.83225 | 13755 ft | 315 kts | 98° |
| 2026-05-06 18:18 | 48.49567 | 15.86551 | 13232 ft | 326 kts | 98° |
| 2026-05-06 18:18 | 48.49364 | 15.89921 | 12705 ft | 321 kts | 98° |
| 2026-05-06 18:18 | 48.49165 | 15.93247 | 12155 ft | 317 kts | 98° |
| 2026-05-06 18:19 | 48.48968 | 15.96532 | 11606 ft | 314 kts | 98° |
| 2026-05-06 18:19 | 48.48771 | 15.99794 | 11056 ft | 312 kts | 98° |
| 2026-05-06 18:19 | 48.48576 | 16.03029 | 10506 ft | 310 kts | 98° |
| 2026-05-06 18:19 | 48.48099 | 16.06132 | 10084 ft | 297 kts | 114° |
| 2026-05-06 18:20 | 48.47155 | 16.08846 | 9918 ft | 299 kts | 124° |
| 2026-05-06 18:20 | 48.45940 | 16.11404 | 9369 ft | 300 kts | 132° |
| 2026-05-06 18:20 | 48.44577 | 16.13756 | 8822 ft | 296 kts | 137° |
| 2026-05-06 18:20 | 48.43169 | 16.15985 | 8266 ft | 295 kts | 137° |
| 2026-05-06 18:21 | 48.42186 | 16.18656 | 8157 ft | 289 kts | 118° |
| 2026-05-06 18:21 | 48.41655 | 16.21641 | 8048 ft | 300 kts | 106° |
| 2026-05-06 18:21 | 48.41364 | 16.24748 | 7923 ft | 302 kts | 101° |
| 2026-05-06 18:21 | 48.41141 | 16.27910 | 7417 ft | 304 kts | 100° |
| 2026-05-06 18:22 | 48.40953 | 16.31038 | 6915 ft | 299 kts | 99° |
| 2026-05-06 18:22 | 48.40788 | 16.34132 | 6414 ft | 294 kts | 99° |
| 2026-05-06 18:22 | 48.40638 | 16.37155 | 6101 ft | 284 kts | 100° |
| 2026-05-06 18:22 | 48.40160 | 16.39944 | 6018 ft | 271 kts | 116° |
| 2026-05-06 18:23 | 48.39087 | 16.42195 | 5997 ft | 263 kts | 140° |
| 2026-05-06 18:23 | 48.37536 | 16.43541 | 5998 ft | 257 kts | 163° |
| 2026-05-06 18:23 | 48.35790 | 16.43778 | 5999 ft | 251 kts | 187° |
| 2026-05-06 18:23 | 48.34175 | 16.42881 | 5998 ft | 249 kts | 210° |
| 2026-05-06 18:24 | 48.32958 | 16.41037 | 5806 ft | 256 kts | 230° |
| 2026-05-06 18:24 | 48.32280 | 16.38586 | 5326 ft | 252 kts | 249° |
| 2026-05-06 18:24 | 48.31949 | 16.36089 | 5091 ft | 235 kts | 256° |
| 2026-05-06 18:24 | 48.31718 | 16.33713 | 5017 ft | 227 kts | 258° |
| 2026-05-06 18:25 | 48.31504 | 16.31379 | 5000 ft | 223 kts | 258° |
| 2026-05-06 18:25 | 48.31272 | 16.29088 | 4984 ft | 221 kts | 255° |
| 2026-05-06 18:25 | 48.30581 | 16.27090 | 5008 ft | 216 kts | 235° |
| 2026-05-06 18:25 | 48.29546 | 16.25415 | 5013 ft | 220 kts | 225° |
| 2026-05-06 18:26 | 48.28455 | 16.23839 | 4998 ft | 216 kts | 223° |
| 2026-05-06 18:26 | 48.27375 | 16.22308 | 4996 ft | 212 kts | 223° |
| 2026-05-06 18:26 | 48.26308 | 16.20797 | 4992 ft | 211 kts | 223° |
| 2026-05-06 18:26 | 48.25172 | 16.19434 | 4949 ft | 212 kts | 213° |
| 2026-05-06 18:27 | 48.23721 | 16.19007 | 4987 ft | 221 kts | 187° |
| 2026-05-06 18:27 | 48.22223 | 16.19708 | 4996 ft | 234 kts | 160° |
| 2026-05-06 18:27 | 48.21041 | 16.21440 | 5001 ft | 247 kts | 134° |
| 2026-05-06 18:27 | 48.20419 | 16.23893 | 4804 ft | 263 kts | 110° |
| 2026-05-06 18:28 | 48.20371 | 16.26639 | 4504 ft | 259 kts | 93° |
| 2026-05-06 18:28 | 48.20330 | 16.29244 | 4204 ft | 243 kts | 98° |
| 2026-05-06 18:28 | 48.19842 | 16.31525 | 3865 ft | 215 kts | 116° |
| 2026-05-06 18:28 | 48.19078 | 16.33315 | 3694 ft | 199 kts | 127° |
| 2026-05-06 18:29 | 48.18297 | 16.35027 | 3410 ft | 199 kts | 127° |
| 2026-05-06 18:29 | 48.17626 | 16.36810 | 3116 ft | 196 kts | 122° |
| 2026-05-06 18:29 | 48.17044 | 16.38592 | 2834 ft | 187 kts | 118° |
| 2026-05-06 18:29 | 48.16482 | 16.40335 | 2586 ft | 186 kts | 118° |
| 2026-05-06 18:30 | 48.15929 | 16.42052 | 2348 ft | 179 kts | 118° |
| 2026-05-06 18:30 | 48.15414 | 16.43685 | 2116 ft | 173 kts | 118° |
| 2026-05-06 18:30 | 48.14905 | 16.45289 | 1871 ft | 168 kts | 119° |
| 2026-05-06 18:30 | 48.14404 | 16.46850 | 1634 ft | 165 kts | 120° |
| 2026-05-06 18:31 | 48.13916 | 16.48341 | 1425 ft | 154 kts | 120° |
| 2026-05-06 18:31 | 48.13454 | 16.49753 | 1201 ft | 148 kts | 119° |
| 2026-05-06 18:31 | 48.13005 | 16.51117 | 999 ft | 144 kts | 118° |
| 2026-05-06 18:31 | 48.12566 | 16.52445 | 806 ft | 142 kts | 118° |
| 2026-05-06 18:32 | 48.12144 | 16.53757 | 634 ft | 137 kts | 117° |
| 2026-05-06 18:32 | 48.11833 | 16.54728 | 609 ft | 59 kts | 117° |
| 2026-05-06 18:32 | 48.11718 | 16.55079 | 609 ft | 33 kts | 117° |
| 2026-05-06 18:32 | 48.11594 | 16.55474 | 609 ft | 43 kts | 116° |
| 2026-05-06 18:33 | 48.11509 | 16.55769 | 609 ft | 22 kts | 100° |
| 2026-05-06 18:33 | 48.11505 | 16.55936 | 609 ft | 11 kts | 92° |
| 2026-05-06 18:33 | 48.11504 | 16.56001 | 609 ft | 2 kts | 90° |
| 2026-05-06 18:33 | 48.11504 | 16.56003 | 609 ft | 0 kts | 90° |
| 2026-05-06 18:34 | 48.11504 | 16.56008 | 609 ft | 3 kts | 90° |
| 2026-05-06 18:34 | 48.11508 | 16.56079 | 609 ft | 16 kts | 71° |
| 2026-05-06 18:34 | 48.11553 | 16.56140 | 609 ft | 8 kts | 342° |
| 2026-05-06 18:34 | 48.11612 | 16.56035 | 609 ft | 15 kts | 289° |
| 2026-05-06 18:35 | 48.11663 | 16.55877 | 609 ft | 14 kts | 296° |
| 2026-05-06 18:35 | 48.11716 | 16.55805 | 609 ft | 9 kts | 352° |
| 2026-05-06 18:35 | 48.11748 | 16.55797 | 609 ft | 7 kts | 343° |
| 2026-05-06 18:35 | 48.11791 | 16.55740 | 609 ft | 9 kts | 305° |
| 2026-05-06 18:36 | 48.11824 | 16.55672 | 609 ft | 5 kts | 346° |
| 2026-05-06 18:36 | 48.11849 | 16.55679 | 609 ft | 7 kts | 21° |
| 2026-05-06 18:36 | 48.11880 | 16.55701 | 609 ft | 2 kts | 25° |
| 2026-05-06 18:36 | 48.11890 | 16.55708 | 609 ft | 0 kts | 25° |